Terminal Aerodrome Forecast
Issued by NWS Buffalo, NY

Home | Current Version | Previous Version | Text Only | Print | Product List | Glossary On
Versions: 1 2 3 4 5 6 7 8 9 10 11 12 13 14 15 16 17 18 19 20 21 22 23 24 25 26 27 28 29 30 31
449
FTUS41 KBUF 272333
TAFART
TAF
KART 272333Z 2800/2824 18004KT P6SM OVC012
     FM280300 18004KT 4SM BR OVC015
     FM280600 19004KT 3SM BR OVC007
     FM280800 VRB03KT 2SM BR OVC007
     FM281000 VRB04KT 2SM BR VCSH OVC007
     FM281700 36005KT P6SM OVC007
     FM281900 36006KT P6SM OVC012=

USA.gov is the U.S. government's official web portal to all federal, state and local government web resources and services.